createdAt,value
2018-09-18T00:00:02.884Z,17.64
2018-09-18T00:00:06.982Z,17.64
2018-09-18T00:00:11.354Z,17.65
2018-09-18T00:00:15.452Z,17.65
2018-09-18T00:00:19.757Z,17.65
2018-09-18T00:00:23.957Z,17.65
2018-09-18T00:00:28.273Z,17.66
2018-09-18T00:00:32.578Z,17.64
2018-09-18T00:00:36.876Z,17.65
2018-09-18T00:00:41.082Z,17.66
2018-09-18T00:00:45.289Z,17.66
2018-09-18T00:00:49.600Z,17.67
2018-09-18T00:00:53.580Z,17.66
2018-09-18T00:00:57.887Z,17.66
2018-09-18T00:01:02.198Z,17.67
2018-09-18T00:01:06.409Z,17.66
2018-09-18T00:01:10.561Z,17.67
2018-09-18T00:01:14.765Z,17.67
2018-09-18T00:01:19.079Z,17.67
2018-09-18T00:01:23.431Z,17.67
2018-09-18T00:01:27.526Z,17.67
2018-09-18T00:01:31.744Z,17.67
2018-09-18T00:01:36.055Z,17.68
2018-09-18T00:01:40.359Z,17.68
2018-09-18T00:01:44.674Z,17.68
2018-09-18T00:01:48.876Z,17.68
2018-09-18T00:01:53.177Z,17.68
2018-09-18T00:01:57.377Z,17.69
2018-09-18T00:02:01.688Z,17.7
2018-09-18T00:02:05.890Z,17.7
2018-09-18T00:02:10.095Z,17.69
2018-09-18T00:02:14.294Z,17.7
2018-09-18T00:02:18.381Z,17.7
2018-09-18T00:02:22.683Z,17.7
2018-09-18T00:02:26.882Z,17.7
2018-09-18T00:02:31.080Z,17.71
2018-09-18T00:02:35.286Z,17.69
2018-09-18T00:02:39.488Z,17.7
2018-09-18T00:02:43.786Z,17.71
2018-09-18T00:02:47.982Z,17.71
2018-09-18T00:02:52.290Z,17.71
2018-09-18T00:02:56.487Z,17.71
2018-09-18T00:03:00.686Z,17.71
2018-09-18T00:03:04.916Z,17.71
2018-09-18T00:03:09.231Z,17.71
2018-09-18T00:03:13.426Z,17.71
2018-09-18T00:03:17.624Z,17.7
2018-09-18T00:03:21.825Z,17.71
2018-09-18T00:03:26.134Z,17.7
2018-09-18T00:03:30.225Z,17.71
2018-09-18T00:03:34.424Z,17.72
2018-09-18T00:03:38.626Z,17.71
2018-09-18T00:03:42.716Z,17.71
2018-09-18T00:03:46.914Z,17.71
2018-09-18T00:03:51.110Z,17.71
2018-09-18T00:03:55.310Z,17.71
2018-09-18T00:03:59.502Z,17.71
2018-09-18T00:04:03.594Z,17.71
2018-09-18T00:04:07.802Z,17.71
2018-09-18T00:04:12.003Z,17.7
2018-09-18T00:04:16.315Z,17.71
2018-09-18T00:04:20.511Z,17.69
2018-09-18T00:04:24.815Z,17.69
2018-09-18T00:04:29.016Z,17.7
2018-09-18T00:04:33.312Z,17.7
2018-09-18T00:04:37.620Z,17.7
2018-09-18T00:04:41.752Z,17.69
2018-09-18T00:04:45.742Z,17.7
2018-09-18T00:04:50.046Z,17.7
2018-09-18T00:04:54.142Z,17.69
2018-09-18T00:04:58.446Z,17.69
2018-09-18T00:05:02.648Z,17.69
2018-09-18T00:05:06.842Z,17.69
2018-09-18T00:05:11.142Z,17.69
2018-09-18T00:05:15.449Z,17.68
2018-09-18T00:05:19.778Z,17.69
2018-09-18T00:05:24.082Z,17.68
2018-09-18T00:05:28.173Z,17.68
2018-09-18T00:05:32.493Z,17.68
2018-09-18T00:05:36.692Z,17.68
2018-09-18T00:05:40.799Z,17.67
2018-09-18T00:05:45.002Z,17.67
2018-09-18T00:05:49.100Z,17.67
2018-09-18T00:05:53.185Z,17.67
2018-09-18T00:05:57.283Z,17.67
2018-09-18T00:06:01.592Z,17.67
2018-09-18T00:06:05.910Z,17.66
2018-09-18T00:06:10.231Z,17.66
2018-09-18T00:06:14.544Z,17.66
2018-09-18T00:06:18.848Z,17.66
2018-09-18T00:06:23.159Z,17.66
2018-09-18T00:06:27.472Z,17.65
2018-09-18T00:06:31.563Z,17.66
2018-09-18T00:06:35.886Z,17.65
2018-09-18T00:06:40.080Z,17.65
2018-09-18T00:06:44.384Z,17.65
2018-09-18T00:06:48.585Z,17.65
2018-09-18T00:06:52.790Z,17.65
2018-09-18T00:06:57.106Z,17.63
2018-09-18T00:07:01.420Z,17.64
2018-09-18T00:07:05.622Z,17.63
2018-09-18T00:07:09.924Z,17.64
2018-09-18T00:07:14.229Z,17.64
2018-09-18T00:07:18.429Z,17.64
2018-09-18T00:07:22.732Z,17.64
2018-09-18T00:07:27.045Z,17.63
2018-09-18T00:07:31.256Z,17.63
2018-09-18T00:07:35.609Z,17.63
2018-09-18T00:07:39.913Z,17.63
2018-09-18T00:07:44.206Z,17.63
2018-09-18T00:07:48.656Z,17.63
2018-09-18T00:07:52.966Z,17.63
2018-09-18T00:07:57.105Z,17.62
2018-09-18T00:08:01.412Z,17.62
2018-09-18T00:08:05.397Z,17.62
2018-09-18T00:08:09.708Z,17.62
2018-09-18T00:08:14.034Z,17.61
2018-09-18T00:08:18.231Z,17.62
2018-09-18T00:08:22.491Z,17.61
2018-09-18T00:08:26.797Z,17.61
2018-09-18T00:08:30.998Z,17.62
2018-09-18T00:08:35.210Z,17.61
2018-09-18T00:08:39.414Z,17.6
2018-09-18T00:08:43.764Z,17.6
2018-09-18T00:08:48.068Z,17.61
2018-09-18T00:08:52.162Z,17.6
2018-09-18T00:08:56.514Z,17.6
2018-09-18T00:09:00.822Z,17.59
2018-09-18T00:09:05.023Z,17.6
2018-09-18T00:09:09.115Z,17.59
2018-09-18T00:09:13.428Z,17.59
2018-09-18T00:09:17.630Z,17.6
2018-09-18T00:09:21.933Z,17.59
2018-09-18T00:09:26.043Z,17.59
2018-09-18T00:09:30.250Z,17.59
2018-09-18T00:09:34.235Z,17.59
2018-09-18T00:09:38.543Z,17.6
2018-09-18T00:09:42.753Z,17.59
2018-09-18T00:09:46.955Z,17.58
2018-09-18T00:09:51.263Z,17.59
2018-09-18T00:09:55.582Z,17.58
2018-09-18T00:09:59.888Z,17.58
2018-09-18T00:10:04.101Z,17.58
2018-09-18T00:10:08.194Z,17.57
2018-09-18T00:10:12.553Z,17.58
2018-09-18T00:10:16.760Z,17.57
2018-09-18T00:10:21.099Z,17.58
2018-09-18T00:10:25.434Z,17.57
2018-09-18T00:10:29.757Z,17.57
2018-09-18T00:10:33.851Z,17.57
2018-09-18T00:10:38.156Z,17.56
2018-09-18T00:10:42.349Z,17.57
2018-09-18T00:10:46.444Z,17.56
2018-09-18T00:10:50.750Z,17.56
2018-09-18T00:10:54.943Z,17.56
2018-09-18T00:10:59.159Z,17.56
2018-09-18T00:11:03.368Z,17.56
2018-09-18T00:11:07.573Z,17.56
2018-09-18T00:11:11.891Z,17.56
2018-09-18T00:11:16.196Z,17.55
2018-09-18T00:11:20.503Z,17.55
2018-09-18T00:11:24.700Z,17.55
2018-09-18T00:11:29.017Z,17.55
2018-09-18T00:11:33.221Z,17.55
2018-09-18T00:11:37.417Z,17.55
2018-09-18T00:11:41.731Z,17.55
2018-09-18T00:11:45.713Z,17.54
2018-09-18T00:11:50.023Z,17.54
2018-09-18T00:11:54.335Z,17.54
2018-09-18T00:11:58.641Z,17.55
2018-09-18T00:12:02.844Z,17.54
2018-09-18T00:12:07.045Z,17.55
2018-09-18T00:12:11.348Z,17.54
2018-09-18T00:12:15.660Z,17.53
2018-09-18T00:12:19.644Z,17.54
2018-09-18T00:12:23.840Z,17.55
2018-09-18T00:12:28.190Z,17.53
2018-09-18T00:12:32.396Z,17.53
2018-09-18T00:12:36.593Z,17.54
2018-09-18T00:12:40.897Z,17.54
2018-09-18T00:12:45.197Z,17.53
2018-09-18T00:12:49.526Z,17.53
2018-09-18T00:12:53.833Z,17.53
2018-09-18T00:12:58.138Z,17.53
2018-09-18T00:13:02.391Z,17.52
2018-09-18T00:13:06.493Z,17.52
2018-09-18T00:13:10.693Z,17.52
2018-09-18T00:13:14.892Z,17.53
2018-09-18T00:13:18.991Z,17.52
2018-09-18T00:13:23.293Z,17.53
2018-09-18T00:13:27.606Z,17.51
2018-09-18T00:13:31.924Z,17.53
2018-09-18T00:13:36.234Z,17.52
2018-09-18T00:13:40.546Z,17.52
2018-09-18T00:13:44.744Z,17.52
2018-09-18T00:13:48.939Z,17.51
2018-09-18T00:13:53.248Z,17.52
2018-09-18T00:13:57.449Z,17.52
2018-09-18T00:14:01.756Z,17.52
2018-09-18T00:14:06.072Z,17.52
2018-09-18T00:14:10.376Z,17.52
2018-09-18T00:14:14.728Z,17.52
2018-09-18T00:14:18.936Z,17.52
2018-09-18T00:14:23.136Z,17.51
2018-09-18T00:14:27.355Z,17.51
2018-09-18T00:14:31.562Z,17.52
2018-09-18T00:14:35.769Z,17.51
2018-09-18T00:14:40.072Z,17.52
2018-09-18T00:14:44.375Z,17.51
2018-09-18T00:14:48.465Z,17.51
2018-09-18T00:14:52.782Z,17.52
2018-09-18T00:14:57.091Z,17.52
2018-09-18T00:15:01.185Z,17.51
2018-09-18T00:15:05.328Z,17.51
2018-09-18T00:15:09.634Z,17.51
2018-09-18T00:15:13.935Z,17.51
2018-09-18T00:15:18.298Z,17.52
2018-09-18T00:15:22.501Z,17.51
2018-09-18T00:15:26.705Z,17.51
2018-09-18T00:15:31.006Z,17.51
2018-09-18T00:15:35.313Z,17.51
2018-09-18T00:15:39.634Z,17.51
2018-09-18T00:15:43.724Z,17.51
2018-09-18T00:15:47.926Z,17.51
2018-09-18T00:15:52.240Z,17.52
2018-09-18T00:15:56.550Z,17.52
2018-09-18T00:16:00.865Z,17.51
2018-09-18T00:16:04.957Z,17.52
2018-09-18T00:16:09.049Z,17.51
2018-09-18T00:16:13.363Z,17.51
2018-09-18T00:16:17.679Z,17.51
2018-09-18T00:16:21.988Z,17.51
2018-09-18T00:16:26.292Z,17.51
2018-09-18T00:16:30.596Z,17.51
2018-09-18T00:16:34.801Z,17.51
2018-09-18T00:16:39.000Z,17.51
2018-09-18T00:16:43.100Z,17.51
2018-09-18T00:16:47.195Z,17.51
2018-09-18T00:16:51.505Z,17.51
2018-09-18T00:16:55.807Z,17.51
2018-09-18T00:17:00.109Z,17.51
2018-09-18T00:17:04.302Z,17.52
2018-09-18T00:17:08.506Z,17.51
2018-09-18T00:17:12.706Z,17.51
2018-09-18T00:17:16.903Z,17.5
2018-09-18T00:17:21.100Z,17.51
2018-09-18T00:17:25.196Z,17.51
2018-09-18T00:17:29.508Z,17.5
2018-09-18T00:17:33.714Z,17.51
2018-09-18T00:17:37.806Z,17.5
2018-09-18T00:17:42.122Z,17.5
2018-09-18T00:17:46.319Z,17.5
2018-09-18T00:17:50.410Z,17.5
2018-09-18T00:17:54.502Z,17.5
2018-09-18T00:17:58.601Z,17.5
2018-09-18T00:18:02.805Z,17.5
2018-09-18T00:18:07.001Z,17.5
2018-09-18T00:18:11.318Z,17.5
2018-09-18T00:18:15.527Z,17.5
2018-09-18T00:18:19.834Z,17.5
2018-09-18T00:18:24.036Z,17.5
2018-09-18T00:18:28.339Z,17.5
2018-09-18T00:18:32.646Z,17.49
2018-09-18T00:18:36.951Z,17.5
2018-09-18T00:18:41.162Z,17.49
2018-09-18T00:18:45.470Z,17.5
2018-09-18T00:18:49.785Z,17.49
2018-09-18T00:18:53.986Z,17.49
2018-09-18T00:18:58.300Z,17.49
2018-09-18T00:19:02.497Z,17.48
2018-09-18T00:19:06.705Z,17.49
2018-09-18T00:19:10.908Z,17.49
2018-09-18T00:19:15.219Z,17.48
2018-09-18T00:19:19.418Z,17.49
2018-09-18T00:19:23.624Z,17.48
2018-09-18T00:19:27.935Z,17.49
2018-09-18T00:19:32.033Z,17.49
2018-09-18T00:19:36.238Z,17.47
2018-09-18T00:19:40.441Z,17.48
2018-09-18T00:19:44.748Z,17.48
2018-09-18T00:19:48.950Z,17.48
2018-09-18T00:19:53.257Z,17.48
2018-09-18T00:19:57.357Z,17.48
2018-09-18T00:20:01.592Z,17.47
2018-09-18T00:20:05.591Z,17.47
2018-09-18T00:20:09.578Z,17.48
2018-09-18T00:20:13.890Z,17.47
2018-09-18T00:20:18.100Z,17.48
2018-09-18T00:20:22.301Z,17.47
2018-09-18T00:20:26.504Z,17.47
2018-09-18T00:20:30.709Z,17.47
2018-09-18T00:20:34.809Z,17.47
2018-09-18T00:20:38.898Z,17.47
2018-09-18T00:20:43.098Z,17.47
2018-09-18T00:20:47.408Z,17.46
2018-09-18T00:20:51.609Z,17.48
2018-09-18T00:20:55.823Z,17.46
2018-09-18T00:21:00.133Z,17.46
2018-09-18T00:21:04.596Z,17.45
2018-09-18T00:21:08.910Z,17.47
2018-09-18T00:21:13.213Z,17.47
2018-09-18T00:21:17.527Z,17.46
2018-09-18T00:21:21.831Z,17.45
2018-09-18T00:21:26.025Z,17.46
2018-09-18T00:21:30.233Z,17.45
2018-09-18T00:21:34.328Z,17.46
2018-09-18T00:21:38.640Z,17.46
2018-09-18T00:21:42.949Z,17.46
2018-09-18T00:21:47.144Z,17.46
2018-09-18T00:21:51.340Z,17.47
2018-09-18T00:21:55.553Z,17.46
2018-09-18T00:21:59.643Z,17.46
2018-09-18T00:22:03.736Z,17.46
2018-09-18T00:22:08.039Z,17.46
2018-09-18T00:22:12.343Z,17.46
2018-09-18T00:22:16.660Z,17.46
2018-09-18T00:22:20.961Z,17.45
2018-09-18T00:22:25.259Z,17.45
2018-09-18T00:22:29.462Z,17.46
2018-09-18T00:22:33.770Z,17.45
2018-09-18T00:22:38.076Z,17.45
2018-09-18T00:22:42.064Z,17.45
2018-09-18T00:22:46.401Z,17.45
2018-09-18T00:22:50.612Z,17.45
2018-09-18T00:22:54.916Z,17.45
2018-09-18T00:22:59.144Z,17.45
2018-09-18T00:23:03.239Z,17.45
2018-09-18T00:23:07.549Z,17.45
2018-09-18T00:23:11.765Z,17.45
2018-09-18T00:23:15.959Z,17.45
2018-09-18T00:23:20.161Z,17.44
2018-09-18T00:23:24.359Z,17.45
2018-09-18T00:23:28.664Z,17.45
2018-09-18T00:23:32.865Z,17.45
2018-09-18T00:23:37.212Z,17.44
2018-09-18T00:23:41.415Z,17.44
2018-09-18T00:23:45.511Z,17.44
2018-09-18T00:23:49.708Z,17.44
2018-09-18T00:23:54.005Z,17.44
2018-09-18T00:23:58.309Z,17.45
2018-09-18T00:24:02.620Z,17.44
2018-09-18T00:24:06.818Z,17.43
2018-09-18T00:24:10.913Z,17.44
2018-09-18T00:24:15.113Z,17.43
2018-09-18T00:24:19.422Z,17.43
2018-09-18T00:24:23.727Z,17.43
2018-09-18T00:24:27.937Z,17.43
2018-09-18T00:24:32.133Z,17.43
2018-09-18T00:24:36.444Z,17.42
2018-09-18T00:24:40.641Z,17.42
2018-09-18T00:24:44.953Z,17.43
2018-09-18T00:24:49.153Z,17.43
2018-09-18T00:24:53.456Z,17.43
2018-09-18T00:24:57.552Z,17.42
2018-09-18T00:25:01.864Z,17.43
2018-09-18T00:25:06.066Z,17.42
2018-09-18T00:25:10.381Z,17.42
2018-09-18T00:25:14.477Z,17.41
2018-09-18T00:25:18.800Z,17.41
2018-09-18T00:25:23.111Z,17.42
2018-09-18T00:25:27.316Z,17.41
2018-09-18T00:25:31.412Z,17.42
2018-09-18T00:25:35.722Z,17.4
2018-09-18T00:25:40.037Z,17.41
2018-09-18T00:25:44.234Z,17.4
2018-09-18T00:25:48.328Z,17.41
2018-09-18T00:25:52.523Z,17.4
2018-09-18T00:25:56.831Z,17.4
2018-09-18T00:26:01.036Z,17.4
2018-09-18T00:26:05.339Z,17.39
2018-09-18T00:26:09.653Z,17.4
2018-09-18T00:26:13.851Z,17.39
2018-09-18T00:26:18.154Z,17.39
2018-09-18T00:26:22.463Z,17.38
2018-09-18T00:26:26.775Z,17.38
2018-09-18T00:26:31.099Z,17.38
2018-09-18T00:26:35.408Z,17.38
2018-09-18T00:26:39.610Z,17.37
2018-09-18T00:26:43.610Z,17.37
2018-09-18T00:26:47.711Z,17.37
2018-09-18T00:26:52.018Z,17.37
2018-09-18T00:26:56.327Z,17.35
2018-09-18T00:27:00.418Z,17.36
2018-09-18T00:27:04.396Z,17.36
2018-09-18T00:27:08.490Z,17.35
2018-09-18T00:27:12.794Z,17.34
2018-09-18T00:27:16.899Z,17.35
2018-09-18T00:27:20.887Z,17.34
2018-09-18T00:27:25.239Z,17.34
2018-09-18T00:27:29.546Z,17.34
2018-09-18T00:27:33.753Z,17.33
2018-09-18T00:27:37.955Z,17.33
2018-09-18T00:27:42.164Z,17.33
2018-09-18T00:27:46.267Z,17.32
2018-09-18T00:27:50.595Z,17.31
2018-09-18T00:27:54.897Z,17.32
2018-09-18T00:27:59.209Z,17.32
2018-09-18T00:28:03.403Z,17.31
2018-09-18T00:28:07.498Z,17.31
2018-09-18T00:28:11.801Z,17.31
2018-09-18T00:28:16.156Z,17.3
2018-09-18T00:28:20.463Z,17.3
2018-09-18T00:28:24.770Z,17.29
2018-09-18T00:28:28.971Z,17.3
2018-09-18T00:28:33.286Z,17.29
2018-09-18T00:28:37.483Z,17.29
2018-09-18T00:28:41.790Z,17.28
2018-09-18T00:28:45.992Z,17.29
2018-09-18T00:28:50.196Z,17.28
2018-09-18T00:28:54.315Z,17.28
2018-09-18T00:28:58.621Z,17.27
2018-09-18T00:29:02.712Z,17.27
2018-09-18T00:29:07.017Z,17.27
2018-09-18T00:29:11.314Z,17.27
2018-09-18T00:29:15.307Z,17.26
2018-09-18T00:29:19.614Z,17.26
2018-09-18T00:29:23.919Z,17.26
2018-09-18T00:29:28.017Z,17.25
2018-09-18T00:29:32.323Z,17.26
2018-09-18T00:29:36.528Z,17.24
2018-09-18T00:29:40.725Z,17.25
2018-09-18T00:29:45.027Z,17.24
2018-09-18T00:29:49.225Z,17.24
2018-09-18T00:29:53.527Z,17.24
2018-09-18T00:29:57.731Z,17.23
2018-09-18T00:30:01.937Z,17.23
2018-09-18T00:30:06.138Z,17.23
2018-09-18T00:30:10.336Z,17.22
2018-09-18T00:30:14.542Z,17.23
2018-09-18T00:30:18.856Z,17.22
2018-09-18T00:30:23.170Z,17.21
2018-09-18T00:30:27.483Z,17.22
2018-09-18T00:30:31.681Z,17.21
2018-09-18T00:30:35.983Z,17.2
2018-09-18T00:30:40.285Z,17.2
2018-09-18T00:30:44.586Z,17.2
2018-09-18T00:30:48.575Z,17.19
2018-09-18T00:30:52.875Z,17.19
2018-09-18T00:30:57.078Z,17.19
2018-09-18T00:31:01.386Z,17.19
2018-09-18T00:31:05.611Z,17.18
2018-09-18T00:31:09.809Z,17.18
2018-09-18T00:31:14.109Z,17.17
2018-09-18T00:31:18.414Z,17.17
2018-09-18T00:31:22.614Z,17.18
2018-09-18T00:31:26.598Z,17.17
2018-09-18T00:31:30.815Z,17.17
2018-09-18T00:31:35.016Z,17.16
2018-09-18T00:31:39.216Z,17.17
2018-09-18T00:31:43.306Z,17.15
2018-09-18T00:31:47.296Z,17.16
2018-09-18T00:31:51.503Z,17.16
2018-09-18T00:31:55.806Z,17.15
2018-09-18T00:32:00.112Z,17.15
2018-09-18T00:32:04.420Z,17.15
2018-09-18T00:32:08.512Z,17.14
2018-09-18T00:32:12.817Z,17.14
2018-09-18T00:32:17.124Z,17.13
2018-09-18T00:32:21.332Z,17.13
2018-09-18T00:32:25.540Z,17.13
2018-09-18T00:32:29.848Z,17.13
2018-09-18T00:32:34.068Z,17.13
2018-09-18T00:32:38.267Z,17.12
2018-09-18T00:32:42.572Z,17.12
2018-09-18T00:32:46.903Z,17.11
2018-09-18T00:32:51.207Z,17.11
2018-09-18T00:32:55.509Z,17.11
2018-09-18T00:32:59.862Z,17.11
2018-09-18T00:33:04.068Z,17.11
2018-09-18T00:33:08.378Z,17.1
2018-09-18T00:33:12.633Z,17.1
2018-09-18T00:33:16.942Z,17.09
2018-09-18T00:33:21.246Z,17.09
2018-09-18T00:33:25.553Z,17.09
2018-09-18T00:33:29.743Z,17.08
2018-09-18T00:33:34.043Z,17.08
2018-09-18T00:33:38.248Z,17.07
2018-09-18T00:33:42.566Z,17.07
2018-09-18T00:33:46.777Z,17.07
2018-09-18T00:33:51.083Z,17.07
2018-09-18T00:33:55.392Z,17.07
2018-09-18T00:33:59.706Z,17.07
2018-09-18T00:34:03.951Z,17.07
2018-09-18T00:34:08.252Z,17.06
2018-09-18T00:34:12.558Z,17.06
2018-09-18T00:34:16.774Z,17.04
2018-09-18T00:34:21.103Z,17.04
2018-09-18T00:34:25.296Z,17.04
2018-09-18T00:34:29.394Z,17.03
2018-09-18T00:34:33.485Z,17.02
2018-09-18T00:34:37.797Z,17.03
2018-09-18T00:34:41.995Z,17.02
2018-09-18T00:34:46.194Z,17.02
2018-09-18T00:34:50.425Z,17.02
2018-09-18T00:34:54.725Z,17.01
2018-09-18T00:34:58.924Z,17.01
2018-09-18T00:35:02.909Z,17.01
2018-09-18T00:35:06.893Z,17.01
2018-09-18T00:35:11.200Z,17
2018-09-18T00:35:15.506Z,17
2018-09-18T00:35:19.804Z,17
2018-09-18T00:35:23.903Z,16.99
2018-09-18T00:35:28.209Z,16.99
2018-09-18T00:35:32.509Z,16.99
2018-09-18T00:35:36.714Z,16.99
2018-09-18T00:35:40.814Z,16.99
2018-09-18T00:35:45.014Z,16.98
2018-09-18T00:35:49.324Z,16.97
2018-09-18T00:35:53.418Z,16.97
2018-09-18T00:35:57.623Z,16.97
2018-09-18T00:36:01.760Z,16.97
2018-09-18T00:36:05.958Z,16.96
2018-09-18T00:36:10.274Z,16.97
2018-09-18T00:36:14.596Z,16.96
2018-09-18T00:36:18.899Z,16.96
2018-09-18T00:36:23.214Z,16.96
2018-09-18T00:36:27.520Z,16.96
2018-09-18T00:36:31.716Z,16.94
2018-09-18T00:36:36.020Z,16.95
2018-09-18T00:36:40.328Z,16.95
2018-09-18T00:36:44.528Z,16.94
2018-09-18T00:36:48.844Z,16.94
2018-09-18T00:36:52.985Z,16.94
2018-09-18T00:36:57.303Z,16.93
2018-09-18T00:37:01.602Z,16.93
2018-09-18T00:37:05.899Z,16.93
2018-09-18T00:37:10.098Z,16.92
2018-09-18T00:37:14.188Z,16.91
2018-09-18T00:37:18.490Z,16.91
2018-09-18T00:37:22.687Z,16.91
2018-09-18T00:37:27.000Z,16.91
2018-09-18T00:37:31.302Z,16.9
2018-09-18T00:37:35.604Z,16.9
2018-09-18T00:37:39.905Z,16.9
2018-09-18T00:37:44.098Z,16.89
2018-09-18T00:37:48.298Z,16.89
2018-09-18T00:37:52.513Z,16.89
2018-09-18T00:37:56.818Z,16.88
2018-09-18T00:38:01.119Z,16.88
2018-09-18T00:38:05.105Z,16.88
2018-09-18T00:38:09.305Z,16.88
2018-09-18T00:38:13.628Z,16.88
2018-09-18T00:38:17.832Z,16.87
2018-09-18T00:38:22.025Z,16.86
2018-09-18T00:38:26.223Z,16.87
2018-09-18T00:38:30.427Z,16.86
2018-09-18T00:38:34.629Z,16.86
2018-09-18T00:38:38.824Z,16.86
2018-09-18T00:38:43.025Z,16.86
2018-09-18T00:38:47.171Z,16.86
2018-09-18T00:38:51.474Z,16.85
2018-09-18T00:38:55.770Z,16.86
2018-09-18T00:39:00.083Z,16.84
2018-09-18T00:39:04.287Z,16.85
2018-09-18T00:39:08.382Z,16.85
2018-09-18T00:39:12.584Z,16.84
2018-09-18T00:39:16.788Z,16.83
2018-09-18T00:39:21.098Z,16.84
2018-09-18T00:39:25.291Z,16.83
2018-09-18T00:39:29.384Z,16.83
2018-09-18T00:39:33.582Z,16.84
2018-09-18T00:39:37.884Z,16.83
2018-09-18T00:39:42.083Z,16.84
2018-09-18T00:39:46.384Z,16.82
2018-09-18T00:39:50.589Z,16.82
2018-09-18T00:39:54.786Z,16.83
2018-09-18T00:39:58.982Z,16.82
2018-09-18T00:40:03.070Z,16.82
2018-09-18T00:40:07.065Z,16.82
2018-09-18T00:40:11.170Z,16.82
2018-09-18T00:40:15.480Z,16.82
2018-09-18T00:40:19.684Z,16.81
2018-09-18T00:40:23.876Z,16.81
2018-09-18T00:40:28.179Z,16.81
2018-09-18T00:40:32.488Z,16.81
2018-09-18T00:40:36.686Z,16.81
2018-09-18T00:40:40.992Z,16.81
2018-09-18T00:40:45.296Z,16.81
2018-09-18T00:40:49.598Z,16.81
2018-09-18T00:40:53.796Z,16.81
2018-09-18T00:40:58.103Z,16.8
2018-09-18T00:41:02.408Z,16.8
2018-09-18T00:41:06.724Z,16.8
2018-09-18T00:41:10.927Z,16.8
2018-09-18T00:41:15.124Z,16.79
2018-09-18T00:41:19.331Z,16.8
2018-09-18T00:41:23.547Z,16.79
2018-09-18T00:41:27.848Z,16.79
2018-09-18T00:41:31.943Z,16.78
2018-09-18T00:41:36.141Z,16.79
2018-09-18T00:41:40.447Z,16.79
2018-09-18T00:41:44.752Z,16.79
2018-09-18T00:41:48.963Z,16.79
2018-09-18T00:41:53.160Z,16.79
2018-09-18T00:41:57.362Z,16.78
2018-09-18T00:42:01.669Z,16.79
2018-09-18T00:42:06.023Z,16.78
2018-09-18T00:42:10.225Z,16.78
2018-09-18T00:42:14.423Z,16.78
2018-09-18T00:42:18.626Z,16.78
2018-09-18T00:42:22.940Z,16.78
2018-09-18T00:42:27.245Z,16.78
2018-09-18T00:42:31.446Z,16.78
2018-09-18T00:42:35.749Z,16.77
2018-09-18T00:42:40.055Z,16.78
2018-09-18T00:42:44.355Z,16.78
2018-09-18T00:42:48.660Z,16.77
2018-09-18T00:42:52.959Z,16.77
2018-09-18T00:42:57.095Z,16.77
2018-09-18T00:43:01.487Z,16.77
2018-09-18T00:43:05.591Z,16.77
2018-09-18T00:43:09.797Z,16.76
2018-09-18T00:43:14.109Z,16.76
2018-09-18T00:43:18.412Z,16.77
2018-09-18T00:43:22.615Z,16.76
2018-09-18T00:43:26.922Z,16.76
2018-09-18T00:43:31.012Z,16.76
2018-09-18T00:43:35.325Z,16.76
2018-09-18T00:43:39.635Z,16.76
2018-09-18T00:43:43.934Z,16.76
2018-09-18T00:43:48.029Z,16.75
2018-09-18T00:43:52.230Z,16.76
2018-09-18T00:43:56.429Z,16.76
2018-09-18T00:44:00.745Z,16.76
2018-09-18T00:44:04.836Z,16.75
2018-09-18T00:44:09.038Z,16.74
2018-09-18T00:44:13.363Z,16.75
2018-09-18T00:44:17.562Z,16.75
2018-09-18T00:44:21.653Z,16.75
2018-09-18T00:44:25.850Z,16.75
2018-09-18T00:44:30.059Z,16.75
2018-09-18T00:44:34.371Z,16.74
2018-09-18T00:44:38.569Z,16.75
2018-09-18T00:44:42.764Z,16.74
2018-09-18T00:44:47.088Z,16.75
2018-09-18T00:44:51.292Z,16.74
2018-09-18T00:44:55.597Z,16.73
2018-09-18T00:44:59.799Z,16.74
2018-09-18T00:45:04.013Z,16.74
2018-09-18T00:45:08.216Z,16.74
2018-09-18T00:45:12.529Z,16.73
2018-09-18T00:45:16.738Z,16.73
2018-09-18T00:45:20.938Z,16.73
2018-09-18T00:45:25.033Z,16.73
2018-09-18T00:45:29.340Z,16.73
2018-09-18T00:45:33.535Z,16.73
2018-09-18T00:45:37.841Z,16.72
2018-09-18T00:45:42.084Z,16.73
2018-09-18T00:45:46.397Z,16.73
2018-09-18T00:45:50.707Z,16.72
2018-09-18T00:45:54.910Z,16.72
2018-09-18T00:45:58.994Z,16.72
2018-09-18T00:46:03.196Z,16.71
2018-09-18T00:46:07.193Z,16.72
2018-09-18T00:46:11.285Z,16.72
2018-09-18T00:46:15.607Z,16.71
2018-09-18T00:46:19.809Z,16.7
2018-09-18T00:46:24.009Z,16.72
2018-09-18T00:46:28.317Z,16.72
2018-09-18T00:46:32.514Z,16.71
2018-09-18T00:46:36.712Z,16.71
2018-09-18T00:46:40.910Z,16.71
2018-09-18T00:46:45.110Z,16.71
2018-09-18T00:46:49.413Z,16.71
2018-09-18T00:46:53.410Z,16.71
2018-09-18T00:46:57.612Z,16.71
2018-09-18T00:47:01.917Z,16.71
2018-09-18T00:47:06.116Z,16.71
2018-09-18T00:47:10.425Z,16.7
2018-09-18T00:47:14.626Z,16.69
2018-09-18T00:47:18.925Z,16.69
2018-09-18T00:47:23.022Z,16.69
2018-09-18T00:47:27.338Z,16.69
2018-09-18T00:47:31.539Z,16.7
2018-09-18T00:47:35.737Z,16.7
2018-09-18T00:47:40.044Z,16.69
2018-09-18T00:47:44.134Z,16.69
2018-09-18T00:47:48.442Z,16.69
2018-09-18T00:47:52.751Z,16.7
2018-09-18T00:47:56.950Z,16.68
2018-09-18T00:48:01.288Z,16.69
2018-09-18T00:48:05.382Z,16.68
2018-09-18T00:48:09.694Z,16.69
2018-09-18T00:48:14.006Z,16.68
2018-09-18T00:48:18.315Z,16.68
2018-09-18T00:48:22.509Z,16.68
2018-09-18T00:48:26.716Z,16.68
2018-09-18T00:48:31.020Z,16.69
2018-09-18T00:48:35.115Z,16.68
2018-09-18T00:48:39.418Z,16.68
2018-09-18T00:48:43.629Z,16.68
2018-09-18T00:48:47.833Z,16.67
2018-09-18T00:48:51.928Z,16.67
2018-09-18T00:48:56.125Z,16.67
2018-09-18T00:49:00.325Z,16.67
2018-09-18T00:49:04.632Z,16.67
2018-09-18T00:49:08.946Z,16.68
2018-09-18T00:49:13.157Z,16.67
2018-09-18T00:49:17.353Z,16.67
2018-09-18T00:49:21.550Z,16.66
2018-09-18T00:49:25.750Z,16.66
2018-09-18T00:49:30.064Z,16.66
2018-09-18T00:49:34.259Z,16.66
2018-09-18T00:49:38.470Z,16.66
2018-09-18T00:49:42.663Z,16.65
2018-09-18T00:49:46.651Z,16.66
2018-09-18T00:49:50.854Z,16.66
2018-09-18T00:49:55.155Z,16.66
2018-09-18T00:49:59.355Z,16.65
2018-09-18T00:50:03.602Z,16.66
2018-09-18T00:50:07.909Z,16.65
2018-09-18T00:50:12.207Z,16.65
2018-09-18T00:50:16.520Z,16.65
2018-09-18T00:50:20.845Z,16.65
2018-09-18T00:50:24.977Z,16.65
2018-09-18T00:50:29.279Z,16.66
2018-09-18T00:50:33.493Z,16.64
2018-09-18T00:50:37.794Z,16.64
2018-09-18T00:50:41.779Z,16.65
2018-09-18T00:50:45.867Z,16.65
2018-09-18T00:50:50.067Z,16.66
2018-09-18T00:50:54.267Z,16.65
2018-09-18T00:50:58.574Z,16.65
2018-09-18T00:51:02.780Z,16.64
2018-09-18T00:51:06.976Z,16.65
2018-09-18T00:51:11.286Z,16.66
2018-09-18T00:51:15.384Z,16.65
2018-09-18T00:51:19.591Z,16.65
2018-09-18T00:51:23.904Z,16.64
2018-09-18T00:51:28.103Z,16.65
2018-09-18T00:51:32.410Z,16.65
2018-09-18T00:51:36.628Z,16.65
2018-09-18T00:51:40.944Z,16.63
2018-09-18T00:51:45.044Z,16.64
2018-09-18T00:51:49.244Z,16.63
2018-09-18T00:51:53.341Z,16.64
2018-09-18T00:51:57.644Z,16.64
2018-09-18T00:52:01.851Z,16.64
2018-09-18T00:52:06.057Z,16.64
2018-09-18T00:52:10.152Z,16.64
2018-09-18T00:52:14.461Z,16.64
2018-09-18T00:52:18.763Z,16.64
2018-09-18T00:52:23.071Z,16.64
2018-09-18T00:52:27.375Z,16.63
2018-09-18T00:52:31.685Z,16.64
2018-09-18T00:52:35.990Z,16.64
2018-09-18T00:52:40.186Z,16.63
2018-09-18T00:52:44.381Z,16.63
2018-09-18T00:52:48.580Z,16.63
2018-09-18T00:52:52.884Z,16.63
2018-09-18T00:52:57.188Z,16.64
2018-09-18T00:53:01.393Z,16.63
2018-09-18T00:53:05.588Z,16.63
2018-09-18T00:53:09.895Z,16.64
2018-09-18T00:53:14.092Z,16.63
2018-09-18T00:53:18.394Z,16.64
2018-09-18T00:53:22.596Z,16.64
2018-09-18T00:53:26.898Z,16.64
2018-09-18T00:53:30.785Z,16.64
2018-09-18T00:53:35.093Z,16.63
2018-09-18T00:53:39.405Z,16.64
2018-09-18T00:53:43.503Z,16.65
2018-09-18T00:53:47.593Z,16.64
2018-09-18T00:53:51.892Z,16.64
2018-09-18T00:53:56.198Z,16.63
2018-09-18T00:54:00.504Z,16.64
2018-09-18T00:54:04.727Z,16.64
2018-09-18T00:54:09.080Z,16.64
2018-09-18T00:54:13.278Z,16.63
2018-09-18T00:54:17.580Z,16.64
2018-09-18T00:54:21.789Z,16.64
2018-09-18T00:54:26.112Z,16.64
2018-09-18T00:54:30.323Z,16.64
2018-09-18T00:54:34.638Z,16.64
2018-09-18T00:54:38.846Z,16.63
2018-09-18T00:54:42.837Z,16.64